Ana Sayfa
METAR-TAF:

METAR-TAF

Havaalanları :

East Jakarta, Endonezya

Enlem: 06-15-59S, Boylam: 106-53-28E, yükseklik: 25 m

Güncel hava durumu gözlemi

Rapor saat 21:00 UTC de 55 dakika önce yapıldı.
Rüzgar güneydoğudan 7 kt
Sıcaklık 25°C
Nem 100%
Basınç 1010 hPa
Görüş mesafesi: 2000 m
1600 ft yükseklikte parçalı çok bulutlu
hafif yağmur

METAR: WIHH 242100Z 13007KT 2000 -RA BKN016 25/25 Q1010 NOSIG

Saat: 04:55 (21:55 UTC)

Tahmin

Rapor saat 17:00 UTC de 4 saat ve 55 dakika önce yapıldı.
Ayın 24'si saat 18 UTC'den ayın 25'si saat 18 UTC'ye kadar geçerli Tahmin
Rüzgar batı/güneybatıdan 5 kt
Görüş mesafesi: 5000 m
1800 ft yükseklikte parçalı bulutlu
Toz Pusu
Geçici
ayın 24'si saat 18 UTC'den ayın 25'si saat 00 UTC'ye kadar
Görüş mesafesi: 2000 m
1600 ft yükseklikte az bulutlu, Kümülonimbus.
1700 ft yükseklikte parçalı çok bulutlu
yağmur

TAF: WIHH 241700Z 2418/2518 24005KT 5000 HZ SCT018 TEMPO 2418/2500 2000 RA FEW016CB BKN017

4.000'den fazla havaalanı için hava durumu gözlemleri ve tahminleri (METAR ve TAF raporları).

Kullanılabilir istasyonlar harita üzerinde sarı ve kırmızı noktalarla gösterilir.

İstasyonun adını görmek için fareyi noktanın üzerinde gezdirin.

Sonrasında hava gözlem ve tahminlerini görmek için tıklayın.

Haritayı değiştirmek için: yaklaştırmak için siyah artı işaretli yeşil düğmeye ve uzaklaştırmak için de eksi işaretli düğmeye hızla tıklayın; bitişik haritalar için yeşil okları kullanın.


METAR-TAF: